Monday, August 20, 2018, 8:42 AM EDT
Back to Local

K1V4, St Johnsbury Fairbanks

Location: Saint Johnsbury, VT, United States Lat: 44.417
Local Time: 8:42 AM EDT (12:42 GMT) Lon: -72.017
Time Zone: US/Eastern Elev: 695 ft

Show me the last for .
Show Coded

Time T Td Feel RH Dir Speed Gust Alt SLP Vis Weather Sky Remarks
2018-08-20 07:54 54 54 - 100 - - - 30.22 30.20 0 6-hr Min Temp (8am): 54.0°F
6-hr Max Temp (8am): 57.9°F
2018-08-20 06:54 54 54 - 100 - - - 30.22 30.20 0 None
2018-08-20 05:54 54 54 - 100 - - - 30.21 30.18 0 None
2018-08-20 04:54 55 55 - 100 - - - 30.19 30.16 0 None
2018-08-20 03:54 55 55 - 100 - - - 30.17 30.15 0 None
2018-08-20 02:54 56 56 - 100 - - - 30.16 30.14 0 None
2018-08-20 01:54 58 58 - 100 - - - 30.16 30.14 0 6-hr Min Temp (2am): 57.9°F
6-hr Max Temp (2am): 69.1°F
2018-08-20 00:54 59 58 - 96 - - - 30.14 30.12 0 24-hr Min Temp (1am): 53.1°F
24-hr Max Temp (1am): 79.0°F
2018-08-19 23:54 61 60 - 96 - - - 30.14 30.11 0 None
2018-08-19 22:54 62 61 - 96 - - - 30.13 30.10 0 None
2018-08-19 21:54 64 62 - 93 - - - 30.12 30.10 0 None
2018-08-19 20:54 67 62 - 84 - - - 30.11 30.09 0 None
2018-08-19 19:54 69 62 - 78 - - - 30.08 30.06 0 6-hr Min Temp (8pm): 69.1°F
6-hr Max Temp (8pm): 79.0°F
2018-08-19 18:54 72 62 76 71 - - - 30.06 30.04 0 None
2018-08-19 17:54 77 55 78 46 - - - 30.05 30.03 0 None
2018-08-19 16:54 79 52 - 39 - - - 30.04 30.01 0 None
2018-08-19 15:54 79 53 79 40 - - - 30.04 30.01 0 None
2018-08-19 14:54 78 53 79 41 - - - 30.04 30.02 0 None
2018-08-19 13:54 76 52 77 43 - - - 30.05 30.03 0 6-hr Min Temp (2pm): 54.0°F
6-hr Max Temp (2pm): 77.0°F
2018-08-19 12:54 75 55 77 49 - - - 30.07 30.04 0 None
2018-08-19 11:54 74 56 77 53 - - - 30.07 30.04 0 None
2018-08-19 10:54 72 59 76 63 - - - 30.07 30.05 0 None
2018-08-19 09:54 64 59 - 83 - - - 30.08 30.06 0 None
2018-08-19 08:54 56 56 - 100 - - - 30.08 30.06 0 None

Support USWX by starting your Amazon purchase here.